Time;durP1;ratioP1;P1;durP2;ratioP2;P2;SDS_P1;SDS_P2;PMS_P1;PMS_P2;Temp;Humidity;BMP_temperature;BMP_pressure;BME280_temperature;BME280_humidity;BME280_pressure;Samples;Min_cycle;Max_cycle;Signal;HPM_P1;HPM_P2
2023/09/15 00:00:29;;;;;;;0.40;0.40;;;;;;;14.22;83.62;97139.31;29395;250;63005;-52
2023/09/15 00:01:00;;;;;;;0.40;0.40;;;;;;;14.21;83.78;97143.97;29395;199;63009;-52
2023/09/15 00:01:38;;;;;;;0.50;0.50;;;;;;;14.23;83.39;97141.75;29395;211;63005;-54
2023/09/15 00:02:10;;;;;;;0.50;0.50;;;;;;;14.23;83.47;97143.66;29395;214;63009;-53
2023/09/15 00:02:41;;;;;;;0.50;0.50;;;;;;;14.23;83.79;97141.75;29395;213;63004;-53
2023/09/15 00:03:13;;;;;;;0.50;0.50;;;;;;;14.24;83.50;97143.34;29395;228;63009;-53
2023/09/15 00:03:44;;;;;;;0.40;0.40;;;;;;;14.23;83.60;97143.66;29395;222;63004;-53
2023/09/15 00:04:16;;;;;;;0.40;0.40;;;;;;;14.24;83.39;97146.06;29395;209;63009;-53
2023/09/15 00:04:47;;;;;;;0.50;0.50;;;;;;;14.25;83.60;97144.16;29395;230;63004;-54
2023/09/15 00:05:18;;;;;;;0.50;0.50;;;;;;;14.26;83.31;97143.03;29394;261;64013;-52
2023/09/15 00:05:50;;;;;;;0.43;0.43;;;;;;;14.27;83.30;97141.94;29395;202;63005;-53
2023/09/15 00:06:21;;;;;;;0.50;0.50;;;;;;;14.28;83.38;97143.53;29395;257;63009;-53
2023/09/15 00:06:52;;;;;;;0.40;0.40;;;;;;;14.28;83.63;97146.28;29395;219;63005;-53
2023/09/15 00:07:24;;;;;;;0.50;0.50;;;;;;;14.29;83.18;97142.41;29395;324;63009;-53
2023/09/15 00:08:00;;;;;;;0.50;0.50;;;;;;;14.29;83.32;97150.59;29395;211;63016;-53
2023/09/15 00:08:31;;;;;;;0.43;0.43;;;;;;;14.29;83.36;97135.03;29395;219;63009;-53
2023/09/15 00:09:14;;;;;;;0.50;0.50;;;;;;;14.30;83.33;97146.75;29395;217;63005;-53
2023/09/15 00:09:45;;;;;;;0.50;0.50;;;;;;;14.29;83.13;97134.22;29395;199;63009;-53
2023/09/15 00:10:19;;;;;;;0.40;0.40;;;;;;;14.28;83.31;97138.88;29394;202;64009;-67
2023/09/15 00:10:53;;;;;;;0.50;0.50;;;;;;;14.28;83.27;97141.63;29395;202;63012;-52
2023/09/15 00:11:24;;;;;;;0.50;0.50;;;;;;;14.28;83.38;97138.88;29395;227;63004;-66
2023/09/15 00:11:59;;;;;;;0.50;0.50;;;;;;;14.29;83.24;97139.69;29395;269;63009;-66
2023/09/15 00:12:30;;;;;;;0.50;0.50;;;;;;;14.28;83.52;97143.53;29395;233;63004;-52
2023/09/15 00:13:02;;;;;;;0.50;0.50;;;;;;;14.27;83.48;97141.94;29395;325;63009;-66
2023/09/15 00:14:42;;;;;;;0.43;0.43;;;;;;;14.26;83.41;97143.03;88174;206;64005;-52
2023/09/15 00:15:15;;;;;;;0.50;0.50;;;;;;;14.25;83.67;97144.16;29394;208;64009;-53
2023/09/15 00:15:50;;;;;;;0.40;0.40;;;;;;;14.23;83.42;97140.94;29395;210;63004;-52
2023/09/15 00:16:23;;;;;;;0.50;0.50;;;;;;;14.23;83.51;97140.94;29395;213;63009;-53
2023/09/15 00:16:55;;;;;;;0.40;0.40;;;;;;;14.22;83.69;97148.31;29395;268;63004;-52
2023/09/15 00:17:26;;;;;;;0.50;0.50;;;;;;;14.21;83.55;97143.16;29395;206;63008;-54
2023/09/15 00:17:58;;;;;;;0.40;0.40;;;;;;;14.21;83.55;97151.34;29395;227;63004;-66
2023/09/15 00:18:30;;;;;;;0.50;0.50;;;;;;;14.19;83.71;97140.78;29395;205;63009;-52
2023/09/15 00:19:03;;;;;;;0.50;0.50;;;;;;;14.19;83.94;97148.16;29395;197;63005;-55
2023/09/15 00:19:34;;;;;;;0.50;0.50;;;;;;;14.18;83.87;97143.81;29395;207;63009;-53
2023/09/15 00:20:14;;;;;;;0.50;0.50;;;;;;;14.15;83.77;97138.97;29395;272;63005;-53
2023/09/15 00:20:47;;;;;;;0.50;0.50;;;;;;;14.14;83.95;97140.09;29394;210;64013;-53
2023/09/15 00:21:19;;;;;;;0.50;0.50;;;;;;;14.13;84.46;97141.19;29395;216;63005;-54
2023/09/15 00:21:56;;;;;;;0.40;0.40;;;;;;;14.14;84.35;97145.53;29395;237;63014;-53
2023/09/15 00:22:27;;;;;;;0.40;0.40;;;;;;;14.11;84.45;97144.22;29394;273;64009;-53
2023/09/15 00:22:59;;;;;;;0.40;0.40;;;;;;;14.09;84.45;97141.81;29395;232;63009;-53
2023/09/15 00:23:30;;;;;;;0.50;0.50;;;;;;;14.08;84.71;97145.66;29395;196;63004;-52
2023/09/15 00:24:05;;;;;;;0.50;0.50;;;;;;;14.07;84.39;97144.03;29395;202;63014;-53
2023/09/15 00:24:37;;;;;;;0.50;0.50;;;;;;;14.07;84.93;97138.59;29395;198;63004;-53
2023/09/15 00:25:09;;;;;;;0.40;0.40;;;;;;;14.09;84.60;97143.72;29395;202;63018;-53
2023/09/15 00:25:40;;;;;;;0.40;0.40;;;;;;;14.09;84.57;97141.81;29395;326;63009;-53
2023/09/15 00:26:11;;;;;;;0.43;0.43;;;;;;;14.09;85.15;97136.34;29395;234;63009;-53
2023/09/15 00:26:43;;;;;;;0.50;0.50;;;;;;;14.07;84.91;97138.59;29395;206;63005;-53
2023/09/15 00:27:14;;;;;;;0.40;0.40;;;;;;;14.06;84.87;97142.44;29395;259;63009;-53
2023/09/15 00:27:51;;;;;;;0.50;0.50;;;;;;;14.06;84.87;97142.44;29394;344;64009;-54
2023/09/15 00:28:22;;;;;;;0.50;0.50;;;;;;;14.06;85.00;97136.97;29395;254;63025;-53
2023/09/15 00:30:03;;;;;;;0.50;0.50;;;;;;;14.04;85.50;97141.13;88174;199;64020;-54
2023/09/15 00:30:37;;;;;;;0.40;0.40;;;;;;;14.02;85.01;97135.97;29394;265;64009;-66
2023/09/15 00:31:10;;;;;;;0.50;0.50;;;;;;;14.02;85.18;97130.50;29395;219;63005;-53
2023/09/15 00:31:42;;;;;;;0.50;0.50;;;;;;;14.03;85.32;97136.78;29395;272;63009;-53
2023/09/15 00:32:13;;;;;;;0.40;0.40;;;;;;;14.03;85.46;97136.78;29395;214;63009;-53
2023/09/15 00:32:48;;;;;;;0.40;0.40;;;;;;;14.04;85.38;97132.94;29395;325;63009;-53
2023/09/15 00:33:20;;;;;;;0.40;0.40;;;;;;;14.04;85.02;97138.38;29394;203;64009;-52
2023/09/15 00:33:54;;;;;;;0.50;0.50;;;;;;;14.04;85.13;97133.75;29395;208;63005;-52
2023/09/15 00:34:25;;;;;;;0.50;0.50;;;;;;;14.04;85.29;97130.22;29395;220;63004;-54
2023/09/15 00:34:57;;;;;;;0.50;0.50;;;;;;;14.03;85.16;97132.12;29395;212;63009;-54
2023/09/15 00:35:28;;;;;;;0.50;0.50;;;;;;;14.04;85.42;97128.28;29395;202;63017;-53
2023/09/15 00:36:02;;;;;;;0.50;0.50;;;;;;;14.03;85.32;97126.66;29395;240;63009;-53
2023/09/15 00:36:33;;;;;;;0.50;0.50;;;;;;;14.06;85.47;97136.16;29395;312;63004;-53
2023/09/15 00:37:04;;;;;;;0.50;0.50;;;;;;;14.05;85.19;97129.09;29395;230;63023;-53
2023/09/15 00:37:37;;;;;;;0.40;0.40;;;;;;;14.05;85.60;97129.91;29395;229;63000;-53
2023/09/15 00:38:09;;;;;;;0.50;0.50;;;;;;;14.05;85.36;97131.81;29395;298;63009;-54
2023/09/15 00:38:40;;;;;;;0.40;0.40;;;;;;;14.05;85.55;97132.63;29394;221;64009;-53
2023/09/15 00:39:12;;;;;;;0.50;0.50;;;;;;;14.04;85.20;97133.75;29395;253;63009;-53
2023/09/15 00:39:43;;;;;;;0.50;0.50;;;;;;;14.05;85.29;97131.81;29395;202;63000;-54
2023/09/15 00:40:17;;;;;;;0.40;0.40;;;;;;;14.04;85.38;97133.75;29395;291;63009;-53
2023/09/15 00:40:48;;;;;;;0.40;0.40;;;;;;;14.04;85.42;97132.94;29395;249;63007;-53
2023/09/15 00:41:22;;;;;;;0.50;0.50;;;;;;;14.04;85.40;97122.81;29395;248;63016;-54
2023/09/15 00:41:53;;;;;;;0.50;0.50;;;;;;;14.05;85.68;97132.63;29395;226;63005;-54
2023/09/15 00:42:27;;;;;;;0.50;0.50;;;;;;;14.05;85.45;97129.91;29395;221;63009;-54
2023/09/15 00:42:58;;;;;;;0.50;0.50;;;;;;;14.04;85.58;97128.28;29395;203;63004;-52
2023/09/15 00:43:29;;;;;;;0.50;0.50;;;;;;;14.05;85.36;97132.63;29395;240;63009;-54
2023/09/15 00:45:14;;;;;;;0.46;0.46;;;;;;;14.08;85.39;97132.00;88178;209;64019;-52
2023/09/15 00:45:47;;;;;;;0.50;0.50;;;;;;;14.08;85.20;97129.28;29394;221;64009;-52
2023/09/15 00:46:19;;;;;;;0.43;0.43;;;;;;;14.08;85.39;97123.81;29394;233;64009;-52
2023/09/15 00:46:50;;;;;;;0.50;0.50;;;;;;;14.08;85.13;97126.56;29395;208;63009;-52
2023/09/15 00:47:21;;;;;;;0.40;0.40;;;;;;;14.08;85.40;97129.28;29395;256;63004;-52
2023/09/15 00:47:56;;;;;;;0.50;0.50;;;;;;;14.08;85.24;97129.28;29395;240;63009;-65
2023/09/15 00:48:27;;;;;;;0.50;0.50;;;;;;;14.08;85.68;97121.09;29395;321;63005;-52
2023/09/15 00:48:59;;;;;;;0.47;0.47;;;;;;;14.09;85.61;97130.91;29395;222;63009;-53
2023/09/15 00:49:33;;;;;;;0.40;0.40;;;;;;;14.09;85.50;97125.44;29395;318;63005;-52
2023/09/15 00:50:06;;;;;;;0.40;0.40;;;;;;;14.11;85.39;97127.06;29395;209;63009;-53
2023/09/15 00:50:38;;;;;;;0.40;0.40;;;;;;;14.09;85.67;97125.44;29395;217;63005;-53
2023/09/15 00:51:09;;;;;;;0.50;0.50;;;;;;;14.10;85.60;97128.97;29394;238;64013;-53
2023/09/15 00:51:41;;;;;;;0.40;0.40;;;;;;;14.10;85.70;97120.78;29395;217;63005;-52
2023/09/15 00:52:15;;;;;;;0.47;0.47;;;;;;;14.10;85.46;97126.25;29395;203;63019;-52
2023/09/15 00:52:50;;;;;;;0.50;0.50;;;;;;;14.09;85.39;97124.62;29394;210;64009;-52
2023/09/15 00:53:23;;;;;;;0.50;0.50;;;;;;;14.08;85.62;97123.81;29394;210;64013;-66
2023/09/15 00:53:56;;;;;;;0.50;0.50;;;;;;;14.08;85.62;97123.81;29395;202;63004;-52
2023/09/15 00:54:28;;;;;;;0.50;0.50;;;;;;;14.08;85.62;97123.03;29395;328;63009;-52
2023/09/15 00:55:00;;;;;;;0.50;0.50;;;;;;;14.05;85.85;97119.00;29395;198;63004;-52
2023/09/15 00:55:34;;;;;;;0.50;0.50;;;;;;;14.05;85.44;97119.00;29395;248;63009;-52
2023/09/15 00:56:08;;;;;;;0.40;0.40;;;;;;;14.05;85.52;97119.00;29395;226;63001;-52
2023/09/15 00:56:40;;;;;;;0.50;0.50;;;;;;;14.05;85.85;97121.72;29395;222;63009;-52
2023/09/15 00:57:12;;;;;;;0.50;0.50;;;;;;;14.05;85.79;97120.91;29395;263;63005;-52
2023/09/15 00:57:43;;;;;;;0.40;0.40;;;;;;;14.04;85.73;97117.38;29394;237;64013;-52
2023/09/15 00:58:16;;;;;;;0.40;0.40;;;;;;;14.03;85.91;97113.03;29395;224;63005;-52
2023/09/15 00:58:48;;;;;;;0.50;0.50;;;;;;;14.02;86.00;97122.31;29395;207;63009;-52
2023/09/15 01:00:28;;;;;;;0.49;0.49;;;;;;;14.02;85.99;97119.59;88174;234;64004;-53
2023/09/15 01:01:00;;;;;;;0.40;0.40;;;;;;;14.00;85.83;97116.38;29394;307;64009;-53
2023/09/15 01:01:31;;;;;;;0.40;0.40;;;;;;;13.99;85.94;97117.50;29395;206;63005;-53
2023/09/15 01:02:03;;;;;;;0.40;0.40;;;;;;;14.00;85.87;97124.56;29395;204;63009;-53
2023/09/15 01:02:36;;;;;;;0.50;0.50;;;;;;;13.99;85.96;97119.41;29394;196;64009;-54
2023/09/15 01:03:08;;;;;;;0.50;0.50;;;;;;;13.97;85.90;97118.91;29395;212;63009;-53
2023/09/15 01:03:43;;;;;;;0.50;0.50;;;;;;;13.94;86.19;97117.59;29394;218;64009;-53
2023/09/15 01:04:17;;;;;;;0.40;0.40;;;;;;;13.94;85.95;97123.06;29395;326;63009;-53
2023/09/15 01:04:48;;;;;;;0.50;0.50;;;;;;;13.93;86.39;97116.00;29395;206;63004;-53
2023/09/15 01:05:23;;;;;;;0.40;0.40;;;;;;;13.93;86.52;97124.19;29395;222;63009;-53
2023/09/15 01:05:55;;;;;;;0.50;0.50;;;;;;;13.94;86.66;97116.78;29395;202;63013;-53
2023/09/15 01:06:27;;;;;;;0.50;0.50;;;;;;;13.94;86.49;97117.59;29395;251;63008;-52
2023/09/15 01:07:03;;;;;;;0.40;0.40;;;;;;;13.94;86.55;97117.59;29394;289;64009;-54
2023/09/15 01:07:37;;;;;;;0.40;0.40;;;;;;;13.95;86.60;97119.22;29395;288;63023;-53
2023/09/15 01:08:08;;;;;;;0.50;0.50;;;;;;;13.94;86.86;97120.34;29395;225;63005;-54
2023/09/15 01:08:41;;;;;;;0.40;0.40;;;;;;;13.95;86.62;97112.97;29395;268;63018;-54
2023/09/15 01:09:12;;;;;;;0.50;0.50;;;;;;;13.95;86.79;97118.41;29394;220;64009;-53
2023/09/15 01:09:47;;;;;;;0.40;0.40;;;;;;;13.96;86.49;97115.38;29395;211;63009;-54
2023/09/15 01:10:20;;;;;;;0.43;0.43;;;;;;;13.96;86.55;97111.84;29395;202;63011;-53
2023/09/15 01:10:51;;;;;;;0.50;0.50;;;;;;;13.96;86.86;97115.38;29395;222;63009;-54
2023/09/15 01:11:22;;;;;;;0.50;0.50;;;;;;;13.98;86.76;97112.34;29395;197;63004;-53
2023/09/15 01:11:54;;;;;;;0.35;0.35;;;;;;;13.98;86.48;97118.59;29395;220;63009;-53
2023/09/15 01:12:26;;;;;;;0.40;0.40;;;;;;;13.98;86.80;97113.16;29395;241;63004;-54
2023/09/15 01:12:59;;;;;;;0.40;0.40;;;;;;;13.98;86.45;97118.59;29395;220;63009;-54
2023/09/15 01:13:33;;;;;;;0.50;0.50;;;;;;;13.98;86.75;97118.59;29395;213;63004;-55
2023/09/15 01:14:04;;;;;;;0.50;0.50;;;;;;;13.97;86.64;97117.00;29394;203;64014;-53
2023/09/15 01:14:36;;;;;;;0.40;0.40;;;;;;;13.97;86.39;97114.25;29395;279;63005;-53
2023/09/15 01:15:08;;;;;;;0.40;0.40;;;;;;;13.96;86.30;97118.09;29395;224;63009;-53
2023/09/15 01:15:56;;;;;;;0.40;0.40;;;;;;;13.96;86.50;97115.38;29395;197;63005;-54
2023/09/15 01:16:39;;;;;;;0.40;0.40;;;;;;;13.94;86.27;97117.59;29395;245;63009;-53
2023/09/15 01:17:19;;;;;;;0.50;0.50;;;;;;;13.95;86.67;97107.50;29395;223;63005;-53
2023/09/15 01:18:05;;;;;;;0.40;0.40;;;;;;;13.94;86.69;97114.88;29394;228;64013;-53
2023/09/15 01:19:03;;;;;;;0.50;0.50;;;;;;;13.94;86.71;97106.69;29395;316;63004;-54
2023/09/15 01:20:13;;;;;;;0.50;0.50;;;;;;;13.89;86.89;97109.53;29395;202;63009;-53
2023/09/15 01:21:17;;;;;;;0.50;0.50;;;;;;;13.86;87.01;97114.81;29395;237;63008;-53
2023/09/15 01:22:25;;;;;;;0.50;0.50;;;;;;;13.86;87.08;97106.66;29394;219;64009;-54
2023/09/15 01:23:30;;;;;;;0.43;0.43;;;;;;;13.86;87.42;97109.38;29395;214;63009;-54
2023/09/15 01:24:42;;;;;;;0.50;0.50;;;;;;;13.80;87.95;97100.50;29395;308;63005;-53
2023/09/15 01:25:52;;;;;;;0.50;0.50;;;;;;;13.73;88.34;97108.28;29395;235;63009;-53
2023/09/15 01:27:03;;;;;;;0.50;0.50;;;;;;;13.65;88.88;97098.09;29394;242;64009;-53
2023/09/15 01:28:06;;;;;;;0.50;0.50;;;;;;;13.63;88.78;97100.34;29395;196;63027;-53
2023/09/15 01:29:14;;;;;;;0.50;0.50;;;;;;;13.58;89.22;97100.44;29395;203;63004;-53
2023/09/15 01:30:54;;;;;;;0.46;0.46;;;;;;;13.58;89.00;97105.91;88174;197;64004;-67
2023/09/15 01:31:26;;;;;;;0.50;0.50;;;;;;;13.58;89.13;97103.16;29394;335;64009;-54
2023/09/15 01:31:59;;;;;;;0.50;0.50;;;;;;;13.58;89.26;97100.44;29395;326;63005;-53
2023/09/15 01:32:34;;;;;;;0.50;0.50;;;;;;;13.58;89.23;97103.16;29395;313;63018;-54
2023/09/15 01:33:09;;;;;;;0.50;0.50;;;;;;;13.58;89.06;97097.72;29394;267;64009;-54
2023/09/15 01:33:40;;;;;;;0.50;0.50;;;;;;;13.57;89.17;97094.19;29395;214;63009;-55
2023/09/15 01:34:14;;;;;;;0.50;0.50;;;;;;;13.57;89.24;97096.09;29395;266;63005;-54
2023/09/15 01:34:51;;;;;;;0.50;0.50;;;;;;;13.57;88.86;97096.09;29395;220;63018;-53
2023/09/15 01:35:24;;;;;;;0.45;0.45;;;;;;;13.56;89.06;97092.56;29394;339;64009;-54
2023/09/15 01:35:55;;;;;;;0.47;0.47;;;;;;;13.57;89.04;97101.56;29395;236;63014;-54
2023/09/15 01:36:26;;;;;;;0.50;0.50;;;;;;;13.56;89.17;97103.47;29395;316;63004;-55
2023/09/15 01:36:57;;;;;;;0.50;0.50;;;;;;;13.55;89.08;97098.31;29395;223;63008;-53
2023/09/15 01:37:29;;;;;;;0.50;0.50;;;;;;;13.55;89.45;97104.59;29395;227;63004;-53
2023/09/15 01:38:00;;;;;;;0.50;0.50;;;;;;;13.54;89.36;97096.72;29395;217;63009;-53
2023/09/15 01:38:35;;;;;;;0.40;0.40;;;;;;;13.54;89.43;97104.87;29395;217;63008;-54
2023/09/15 01:39:06;;;;;;;0.50;0.50;;;;;;;13.52;89.41;97104.37;29395;205;63009;-54
2023/09/15 01:39:37;;;;;;;0.50;0.50;;;;;;;13.50;89.60;97101.19;29395;202;63005;-54
2023/09/15 01:40:09;;;;;;;0.50;0.50;;;;;;;13.50;89.52;97106.66;29395;245;63020;-67
2023/09/15 01:40:41;;;;;;;0.50;0.50;;;;;;;13.50;89.23;97106.66;29394;232;64009;-54
2023/09/15 01:41:13;;;;;;;0.50;0.50;;;;;;;13.50;89.66;97101.19;29395;198;63009;-54
2023/09/15 01:41:44;;;;;;;0.50;0.50;;;;;;;13.51;89.51;97108.25;29395;328;63005;-54
2023/09/15 01:42:19;;;;;;;0.50;0.50;;;;;;;13.50;89.62;97095.75;29395;281;63013;-55
2023/09/15 01:42:53;;;;;;;0.47;0.47;;;;;;;13.50;89.42;97101.19;29395;289;63004;-54
2023/09/15 01:43:24;;;;;;;0.50;0.50;;;;;;;13.49;89.67;97099.59;29395;308;63009;-54
2023/09/15 01:43:58;;;;;;;0.50;0.50;;;;;;;13.50;89.60;97101.19;29395;295;63004;-54
2023/09/15 01:44:30;;;;;;;0.50;0.50;;;;;;;13.48;89.58;97097.97;29395;227;63014;-54
2023/09/15 01:46:13;;;;;;;0.50;0.50;;;;;;;13.41;90.16;97101.91;88174;203;64004;-52
2023/09/15 01:46:44;;;;;;;0.50;0.50;;;;;;;13.40;89.80;97103.03;29394;199;64009;-53
2023/09/15 01:47:19;;;;;;;0.40;0.40;;;;;;;13.39;90.07;97095.97;29395;223;63005;-53
2023/09/15 01:47:51;;;;;;;0.50;0.50;;;;;;;13.37;90.21;97103.63;29395;295;63009;-53
2023/09/15 01:48:25;;;;;;;0.50;0.50;;;;;;;13.35;91.37;97105.84;29395;337;63004;-53
2023/09/15 01:48:59;;;;;;;0.50;0.50;;;;;;;13.31;91.62;97104.84;29395;207;63009;-54
2023/09/15 01:49:31;;;;;;;0.50;0.50;;;;;;;13.26;91.38;97106.88;29395;210;63004;-53
2023/09/15 01:50:05;;;;;;;0.50;0.50;;;;;;;13.26;91.26;97099.50;29394;210;64013;-52
2023/09/15 01:50:38;;;;;;;0.50;0.50;;;;;;;13.26;91.15;97096.78;29395;198;63000;-53
2023/09/15 01:51:10;;;;;;;0.50;0.50;;;;;;;13.28;91.56;97100.00;29395;273;63013;-53
2023/09/15 01:51:42;;;;;;;0.50;0.50;;;;;;;13.26;91.33;97099.50;29395;254;63005;-54
2023/09/15 01:52:13;;;;;;;0.40;0.40;;;;;;;13.23;92.07;97105.56;29395;222;63009;-53
2023/09/15 01:52:46;;;;;;;0.43;0.43;;;;;;;13.19;92.05;97099.09;29395;238;63005;-53
2023/09/15 01:53:17;;;;;;;0.40;0.40;;;;;;;13.15;92.45;97100.81;29395;236;63005;-53
2023/09/15 01:53:51;;;;;;;1.37;1.30;;;;;;;13.14;92.15;97098.38;29395;318;63005;-53
2023/09/15 01:54:23;;;;;;;0.40;0.40;;;;;;;13.13;91.82;97103.03;29395;332;63009;-53
2023/09/15 01:54:56;;;;;;;0.40;0.40;;;;;;;13.13;92.24;97104.94;29395;197;63005;-53
2023/09/15 01:55:30;;;;;;;0.40;0.40;;;;;;;13.12;92.80;97095.97;29394;326;64013;-53
2023/09/15 01:56:01;;;;;;;0.40;0.40;;;;;;;13.09;92.39;97102.03;29395;207;63004;-53
2023/09/15 01:56:33;;;;;;;0.70;0.70;;;;;;;13.09;92.71;97102.81;29395;199;63009;-53
2023/09/15 01:57:05;;;;;;;0.45;0.45;;;;;;;13.09;92.29;97093.84;29395;198;63004;-53
2023/09/15 01:57:36;;;;;;;0.50;0.50;;;;;;;13.09;92.64;97091.13;29395;328;63009;-54
2023/09/15 01:58:08;;;;;;;0.50;0.50;;;;;;;13.09;92.55;97097.37;29395;263;63004;-53
2023/09/15 01:58:39;;;;;;;0.50;0.50;;;;;;;13.09;92.83;97096.56;29395;199;63024;-53
2023/09/15 01:59:12;;;;;;;0.40;0.40;;;;;;;13.08;92.44;97089.50;29395;210;63005;-53
2023/09/15 01:59:43;;;;;;;0.43;0.43;;;;;;;13.08;92.26;97094.97;29395;219;63009;-53
2023/09/15 02:00:16;;;;;;;0.50;0.50;;;;;;;13.08;92.30;97094.97;29395;231;63005;-53
2023/09/15 02:00:48;;;;;;;0.40;0.40;;;;;;;13.08;92.18;97086.78;29394;216;64013;-54
2023/09/15 02:01:19;;;;;;;1.70;1.70;;;;;;;13.08;92.40;97092.22;29395;333;63005;-53
2023/09/15 02:01:50;;;;;;;0.40;0.40;;;;;;;13.08;92.40;97097.69;29394;333;64009;-53
2023/09/15 02:02:21;;;;;;;0.50;0.50;;;;;;;13.07;92.16;97090.63;29395;214;63004;-54
2023/09/15 02:02:52;;;;;;;0.40;0.40;;;;;;;13.05;92.76;97090.91;29395;379;63027;-52
2023/09/15 02:03:24;;;;;;;0.40;0.40;;;;;;;13.04;92.93;97093.94;29395;220;63010;-54
2023/09/15 02:03:55;;;;;;;0.50;0.50;;;;;;;13.03;92.61;97098.59;29395;219;63016;-53
2023/09/15 02:04:27;;;;;;;0.47;0.47;;;;;;;13.01;92.49;97098.09;29395;274;63000;-53
2023/09/15 02:05:01;;;;;;;0.50;0.50;;;;;;;13.02;92.61;97090.72;29394;218;64013;-53
2023/09/15 02:05:32;;;;;;;0.50;0.50;;;;;;;13.02;92.96;97096.97;29395;197;63004;-53
2023/09/15 02:06:04;;;;;;;0.40;0.40;;;;;;;13.03;92.84;97097.78;29395;296;63008;-52
2023/09/15 02:06:36;;;;;;;0.50;0.50;;;;;;;13.02;92.64;97096.97;29395;326;63005;-52
2023/09/15 02:07:08;;;;;;;0.50;0.50;;;;;;;13.02;92.78;97090.72;29395;202;63005;-53
2023/09/15 02:07:40;;;;;;;0.50;0.50;;;;;;;13.02;92.49;97096.16;29395;264;63005;-52
2023/09/15 02:08:11;;;;;;;0.50;0.50;;;;;;;13.03;92.86;97092.34;29395;227;63009;-52
2023/09/15 02:08:46;;;;;;;0.50;0.50;;;;;;;13.04;92.54;97105.66;29395;199;63005;-53
2023/09/15 02:09:18;;;;;;;0.50;0.50;;;;;;;13.04;92.78;97096.66;29395;227;63009;-55
2023/09/15 02:09:49;;;;;;;0.50;0.50;;;;;;;13.02;92.41;97096.97;29395;253;63004;-53
2023/09/15 02:10:21;;;;;;;0.50;0.50;;;;;;;13.02;92.32;97102.41;29394;229;64005;-53
2023/09/15 02:10:52;;;;;;;0.50;0.50;;;;;;;13.02;92.38;97098.88;29395;318;63004;-54
2023/09/15 02:11:23;;;;;;;0.50;0.50;;;;;;;13.02;92.53;97099.69;29395;250;63009;-53
2023/09/15 02:11:55;;;;;;;0.50;0.50;;;;;;;13.02;92.25;97101.62;29395;237;63004;-53
2023/09/15 02:12:26;;;;;;;0.50;0.50;;;;;;;13.03;92.49;97093.12;29395;208;63008;-53
2023/09/15 02:13:00;;;;;;;0.50;0.50;;;;;;;13.02;92.63;97093.44;29395;207;63004;-53
2023/09/15 02:13:31;;;;;;;0.50;0.50;;;;;;;13.01;92.19;97100.81;29395;318;63009;-54
2023/09/15 02:14:02;;;;;;;0.50;0.50;;;;;;;13.00;92.40;97092.94;29395;215;63005;-53
2023/09/15 02:14:35;;;;;;;0.50;0.50;;;;;;;12.94;93.41;97099.59;29395;273;63009;-53
2023/09/15 02:15:08;;;;;;;0.50;0.50;;;;;;;12.89;93.82;97102.41;29395;213;63015;-54
2023/09/15 02:16:46;;;;;;;0.50;0.50;;;;;;;12.87;93.53;97099.19;88178;199;64004;-52
2023/09/15 02:17:17;;;;;;;0.50;0.50;;;;;;;12.87;93.58;97093.72;29394;363;64009;-53
2023/09/15 02:17:51;;;;;;;0.43;0.43;;;;;;;12.86;93.52;97100.28;29394;196;64009;-54
2023/09/15 02:18:22;;;;;;;0.50;0.50;;;;;;;12.85;93.80;97094.03;29395;202;63023;-55
2023/09/15 02:18:54;;;;;;;0.47;0.47;;;;;;;12.86;93.74;97100.28;29395;215;63004;-52
2023/09/15 02:19:26;;;;;;;0.47;0.47;;;;;;;12.85;94.04;97096.75;29394;227;64013;-52
2023/09/15 02:19:57;;;;;;;0.50;0.50;;;;;;;12.84;93.68;97106.03;29395;291;63006;-53
2023/09/15 02:20:29;;;;;;;0.50;0.50;;;;;;;12.85;93.78;97096.75;29395;202;63008;-52
2023/09/15 02:21:00;;;;;;;0.50;0.50;;;;;;;12.85;93.86;97096.75;29395;342;63004;-52
2023/09/15 02:21:32;;;;;;;0.50;0.50;;;;;;;12.87;93.90;97104.63;29395;212;63009;-54
2023/09/15 02:22:03;;;;;;;0.50;0.50;;;;;;;12.86;93.73;97101.09;29395;328;63005;-53
2023/09/15 02:22:35;;;;;;;0.50;0.50;;;;;;;12.86;93.77;97103.00;29395;214;63009;-54
2023/09/15 02:23:06;;;;;;;0.50;0.50;;;;;;;12.85;94.29;97095.94;29395;251;63005;-66
2023/09/15 02:23:37;;;;;;;0.50;0.50;;;;;;;12.83;94.00;97109.06;29395;218;63009;-52
2023/09/15 02:24:09;;;;;;;0.45;0.45;;;;;;;12.83;93.71;97098.97;29394;247;64009;-52
2023/09/15 02:24:40;;;;;;;0.50;0.50;;;;;;;12.82;94.02;97102.03;29395;215;63009;-53
2023/09/15 02:25:12;;;;;;;0.50;0.50;;;;;;;12.83;93.80;97103.63;29394;202;64009;-53
2023/09/15 02:25:43;;;;;;;0.50;0.50;;;;;;;12.81;94.17;97106.66;29395;197;63019;-55
2023/09/15 02:26:14;;;;;;;0.50;0.50;;;;;;;12.80;94.31;97104.25;29395;223;63004;-52
2023/09/15 02:26:46;;;;;;;0.50;0.50;;;;;;;12.76;95.08;97098.59;29395;207;63009;-54
2023/09/15 02:27:17;;;;;;;0.50;0.50;;;;;;;12.71;95.20;97094.03;29395;228;63004;-54
2023/09/15 02:27:48;;;;;;;0.50;0.50;;;;;;;12.68;95.89;97108.25;29395;288;63009;-54
2023/09/15 02:28:19;;;;;;;0.47;0.47;;;;;;;12.67;96.03;97111.28;29395;215;63004;-52
2023/09/15 02:28:51;;;;;;;0.50;0.50;;;;;;;12.66;95.82;97105.03;29395;206;63009;-52
2023/09/15 02:29:22;;;;;;;0.50;0.50;;;;;;;12.67;95.45;97103.91;29394;372;64009;-54
2023/09/15 02:29:54;;;;;;;0.50;0.50;;;;;;;12.67;95.33;97103.91;29395;198;63009;-54
2023/09/15 02:30:25;;;;;;;0.50;0.50;;;;;;;12.67;95.21;97101.19;29395;324;63005;-54
2023/09/15 02:32:07;;;;;;;0.50;0.50;;;;;;;12.68;94.94;97091.94;88174;210;64004;-53
2023/09/15 02:32:38;;;;;;;0.50;0.50;;;;;;;12.69;94.74;97098.97;29394;301;64009;-53
2023/09/15 02:33:09;;;;;;;0.50;0.50;;;;;;;12.71;95.11;97096.78;29395;247;63005;-53
2023/09/15 02:33:40;;;;;;;0.50;0.50;;;;;;;12.71;95.12;97101.41;29395;202;63009;-53
2023/09/15 02:34:12;;;;;;;0.50;0.50;;;;;;;12.72;94.93;97106.56;29394;200;64009;-53
2023/09/15 02:34:43;;;;;;;0.50;0.50;;;;;;;12.72;94.93;97108.47;29395;214;63009;-66
2023/09/15 02:35:14;;;;;;;0.40;0.40;;;;;;;12.72;94.79;97098.38;29395;219;63004;-54
2023/09/15 02:35:46;;;;;;;0.50;0.50;;;;;;;12.72;94.74;97103.03;29395;215;63009;-53
2023/09/15 02:36:17;;;;;;;0.50;0.50;;;;;;;12.73;94.76;97100.00;29394;299;64004;-54
2023/09/15 02:36:49;;;;;;;0.50;0.50;;;;;;;12.73;94.82;97105.44;29395;205;63008;-53
2023/09/15 02:37:22;;;;;;;0.50;0.50;;;;;;;12.72;95.05;97092.94;29394;210;64009;-53
2023/09/15 02:37:53;;;;;;;0.50;0.50;;;;;;;12.71;95.45;97102.22;29395;222;63022;-52
2023/09/15 02:38:25;;;;;;;0.50;0.50;;;;;;;12.67;95.80;97100.41;29395;211;63010;-55
2023/09/15 02:38:56;;;;;;;0.50;0.50;;;;;;;12.65;96.21;97106.13;29395;202;63016;-52
2023/09/15 02:39:27;;;;;;;0.50;0.50;;;;;;;12.62;96.49;97104.00;29395;220;63005;-52
2023/09/15 02:39:58;;;;;;;0.50;0.50;;;;;;;12.61;96.53;97107.84;29395;292;63009;-54
2023/09/15 02:40:31;;;;;;;0.50;0.50;;;;;;;12.60;96.87;97100.78;29395;213;63005;-54
2023/09/15 02:41:03;;;;;;;0.60;0.60;;;;;;;12.57;96.83;97106.81;29394;218;64013;-52
2023/09/15 02:41:35;;;;;;;0.50;0.50;;;;;;;12.56;97.00;97105.22;29395;203;63004;-53
2023/09/15 02:42:06;;;;;;;0.45;0.45;;;;;;;12.55;97.28;97108.22;29395;222;63026;-53
2023/09/15 02:42:37;;;;;;;0.50;0.50;;;;;;;12.52;96.94;97109.63;29395;215;63004;-54
2023/09/15 02:43:10;;;;;;;0.50;0.50;;;;;;;12.51;97.03;97099.03;29395;225;63009;-54
2023/09/15 02:43:41;;;;;;;0.50;0.50;;;;;;;12.52;96.74;97103.38;29395;286;63004;-53
2023/09/15 02:44:12;;;;;;;0.50;0.50;;;;;;;12.53;96.60;97107.72;29395;285;63008;-53
2023/09/15 02:44:44;;;;;;;0.50;0.50;;;;;;;12.54;96.73;97107.41;29394;228;64008;-53
2023/09/15 02:45:16;;;;;;;0.50;0.50;;;;;;;12.55;96.46;97111.75;29394;198;64014;-53
2023/09/15 02:45:47;;;;;;;0.50;0.50;;;;;;;12.55;96.65;97113.66;29395;205;63005;-54
2023/09/15 02:47:30;;;;;;;0.50;0.50;;;;;;;12.51;97.43;97113.47;88173;214;64004;-53
2023/09/15 02:48:04;;;;;;;0.50;0.50;;;;;;;12.46;97.90;97102.69;29394;341;64009;-53
2023/09/15 02:48:36;;;;;;;0.50;0.50;;;;;;;12.44;98.02;97110.34;29395;220;63005;-53
2023/09/15 02:49:07;;;;;;;0.68;0.68;;;;;;;12.42;98.11;97107.13;29394;297;64013;-53
2023/09/15 02:49:38;;;;;;;0.50;0.50;;;;;;;12.40;98.18;97099.25;29394;211;64009;-53
2023/09/15 02:50:10;;;;;;;0.50;0.50;;;;;;;12.39;98.21;97102.25;29394;287;64013;-67
2023/09/15 02:50:43;;;;;;;0.50;0.50;;;;;;;12.38;98.47;97103.38;29395;364;63011;-53